Time;durP1;ratioP1;P1;durP2;ratioP2;P2;SDS_P1;SDS_P2;PMS_P1;PMS_P2;Temp;Humidity;BMP_temperature;BMP_pressure;BME280_temperature;BME280_humidity;BME280_pressure;Samples;Min_cycle;Max_cycle;Signal;HPM_P1;HPM_P2
2023/07/25 07:53:05;;;;;;;;;;;;;;;5.79;100.00;98457.94;5628347;23;19942;-91
2023/07/25 07:55:30;;;;;;;;;;;;;;;5.78;100.00;98462.34;4917477;29;19926;-87
2023/07/25 07:57:55;;;;;;;;;;;;;;;5.78;100.00;98466.75;4917865;29;19930;-88
2023/07/25 08:00:21;;;;;;;;;;;;;;;5.74;100.00;98465.16;4934835;29;19919;-88
2023/07/25 08:02:46;;;;;;;;;;;;;;;5.75;100.00;98466.88;4934654;29;19919;-88
2023/07/25 08:05:12;;;;;;;;;;;;;;;5.75;100.00;98474.78;4935141;29;19923;-88
2023/07/25 08:07:37;;;;;;;;;;;;;;;5.77;100.00;98480.81;4916125;29;20321;-88
2023/07/25 08:10:03;;;;;;;;;;;;;;;5.76;100.00;98474.72;4934778;29;20398;-87
2023/07/25 08:12:29;;;;;;;;;;;;;;;5.75;100.00;98482.66;4934799;29;20389;-90
2023/07/25 08:14:54;;;;;;;;;;;;;;;5.79;100.00;98490.34;4917738;29;19951;-89
2023/07/25 08:17:19;;;;;;;;;;;;;;;5.77;100.00;98496.59;4917717;29;19926;-89
2023/07/25 08:19:44;;;;;;;;;;;;;;;5.72;100.00;98498.56;4934706;29;19923;-91
2023/07/25 08:22:10;;;;;;;;;;;;;;;5.77;100.00;98502.69;4933583;29;20017;-87
2023/07/25 08:24:36;;;;;;;;;;;;;;;5.81;100.00;98500.78;4934615;29;19922;-85
2023/07/25 08:27:01;;;;;;;;;;;;;;;5.85;100.00;98504.13;4933920;29;20358;-91
2023/07/25 08:29:26;;;;;;;;;;;;;;;5.77;100.00;98504.47;4917537;29;19966;-90
2023/07/25 08:31:52;;;;;;;;;;;;;;;5.73;100.00;98501.13;4934869;29;19992;-87
2023/07/25 08:34:17;;;;;;;;;;;;;;;5.82;100.00;98507.75;4934539;29;19923;-88
2023/07/25 08:36:42;;;;;;;;;;;;;;;5.76;100.00;98510.63;4917344;29;19930;-88
2023/07/25 08:39:10;;;;;;;;;;;;;;;5.82;100.00;98516.50;4933404;29;19919;-86
2023/07/25 08:41:37;;;;;;;;;;;;;;;5.89;100.00;98522.34;4934508;29;20022;-90
2023/07/25 08:44:02;;;;;;;;;;;;;;;5.87;100.00;98528.56;4933123;29;19966;-86
2023/07/25 08:46:28;;;;;;;;;;;;;;;5.85;100.00;98531.28;4934480;29;19923;-89
2023/07/25 08:48:59;;;;;;;;;;;;;;;5.81;100.00;98529.72;4917632;29;19915;-87
2023/07/25 08:51:26;;;;;;;;;;;;;;;5.85;100.00;98539.16;4920219;29;19974;-87
2023/07/25 08:53:52;;;;;;;;;;;;;;;5.89;100.00;98538.13;4913405;29;19962;-87
2023/07/25 08:56:17;;;;;;;;;;;;;;;5.88;100.00;98541.66;4901848;29;19966;-87
2023/07/25 08:58:44;;;;;;;;;;;;;;;5.90;100.00;98539.81;4901881;29;20041;-85
2023/07/25 09:01:09;;;;;;;;;;;;;;;5.94;100.00;98538.75;4901895;29;19930;-86
2023/07/25 09:03:35;;;;;;;;;;;;;;;5.91;100.00;98544.16;4918795;29;20381;-89
2023/07/25 09:06:01;;;;;;;;;;;;;;;5.91;100.00;98536.25;4918531;29;19926;-88
2023/07/25 09:08:26;;;;;;;;;;;;;;;5.96;100.00;98538.69;4900505;29;19919;-87
2023/07/25 09:10:52;;;;;;;;;;;;;;;5.90;100.00;98534.53;4909743;29;19919;-90
2023/07/25 09:13:19;;;;;;;;;;;;;;;5.90;100.00;98538.97;4898706;29;19927;-86
2023/07/25 09:15:44;;;;;;;;;;;;;;;5.95;100.00;98539.59;4918135;29;19949;-87
2023/07/25 09:18:09;;;;;;;;;;;;;;;5.95;100.00;98542.22;4902104;29;20374;-87
2023/07/25 09:20:36;;;;;;;;;;;;;;;5.93;100.00;98550.19;4900582;29;19915;-85
2023/07/25 09:23:03;;;;;;;;;;;;;;;5.96;100.00;98546.59;4917233;29;19919;-87
2023/07/25 09:25:28;;;;;;;;;;;;;;;5.91;100.00;98544.16;4918682;29;19923;-87
2023/07/25 09:27:53;;;;;;;;;;;;;;;5.92;100.00;98553.75;4918533;29;20377;-87
2023/07/25 09:30:19;;;;;;;;;;;;;;;5.93;100.00;98557.22;4918575;29;19923;-88
2023/07/25 09:32:46;;;;;;;;;;;;;;;5.95;100.00;98551.00;4918544;29;19915;-88
2023/07/25 09:35:12;;;;;;;;;;;;;;;5.91;100.00;98554.66;4918622;29;19923;-90
2023/07/25 09:37:37;;;;;;;;;;;;;;;5.99;100.00;98549.94;4917747;29;19929;-90
2023/07/25 09:40:06;;;;;;;;;;;;;;;6.03;100.00;98555.09;4918852;29;19994;-85
2023/07/25 09:42:32;;;;;;;;;;;;;;;6.08;100.00;98558.34;4917982;29;20012;-86
2023/07/25 09:44:57;;;;;;;;;;;;;;;6.05;100.00;98546.22;4918270;29;20003;-86
2023/07/25 09:47:23;;;;;;;;;;;;;;;6.05;100.00;98554.09;4918152;29;19919;-87
2023/07/25 09:49:49;;;;;;;;;;;;;;;5.99;100.00;98554.38;4901147;29;19926;-87
2023/07/25 09:52:14;;;;;;;;;;;;;;;6.03;100.00;98555.09;4916818;29;19919;-87
2023/07/25 09:54:40;;;;;;;;;;;;;;;6.05;100.00;98559.38;4930234;29;20289;-86
2023/07/25 09:57:06;;;;;;;;;;;;;;;5.99;100.00;98560.47;4919580;29;20354;-88
2023/07/25 09:59:31;;;;;;;;;;;;;;;6.06;100.00;98558.44;4936776;29;19922;-87
2023/07/25 10:01:57;;;;;;;;;;;;;;;5.97;100.00;98557.06;4935839;29;19919;-91
2023/07/25 10:04:24;;;;;;;;;;;;;;;6.07;100.00;98561.94;4919651;29;19926;-88
2023/07/25 10:06:53;;;;;;;;;;;;;;;5.99;100.00;98563.09;4936013;29;19919;-88
2023/07/25 10:09:18;;;;;;;;;;;;;;;6.03;100.00;98565.59;4935444;29;19962;-86
2023/07/25 10:12:45;;;;;;;;;;;;;;;6.03;100.00;98568.22;4919393;29;19962;-90
2023/07/25 10:14:51;;;;;;;;;;;;;;;6.03;100.00;98563.84;4922496;29;19965;-86
2023/07/25 10:17:17;;;;;;;;;;;;;;;6.09;100.00;98563.56;4936473;29;19966;-85
2023/07/25 10:19:55;;;;;;;;;;;;;;;6.12;100.00;98559.94;4919672;29;20330;-91
2023/07/25 10:22:32;;;;;;;;;;;;;;;6.03;100.00;98568.22;4934504;29;20237;-86
2023/07/25 10:24:58;;;;;;;;;;;;;;;6.10;100.00;98562.63;4936215;29;20009;-87
2023/07/25 10:27:23;;;;;;;;;;;;;;;6.08;100.00;98556.59;4936972;29;20009;-95
2023/07/25 10:29:49;;;;;;;;;;;;;;;6.08;100.00;98555.72;4937273;29;20007;-88
2023/07/25 10:32:15;;;;;;;;;;;;;;;6.10;100.00;98556.53;4936261;29;19966;-88
2023/07/25 10:34:44;;;;;;;;;;;;;;;6.13;100.00;98553.78;4935468;29;19967;-89
2023/07/25 10:40:08;;;;;;;;;;;;;;;6.04;100.00;98552.38;5190978;23;19927;-91
2023/07/25 10:42:41;;;;;;;;;;;;;;;6.04;100.00;98551.53;4928793;29;20383;-88
2023/07/25 10:45:07;;;;;;;;;;;;;;;6.06;100.00;98555.78;4945526;28;19923;-85
2023/07/25 10:47:42;;;;;;;;;;;;;;;6.07;100.00;98556.66;4945811;28;19942;-86
2023/07/25 10:50:07;;;;;;;;;;;;;;;6.12;100.00;98554.69;4946481;28;19971;-84
2023/07/25 10:52:42;;;;;;;;;;;;;;;6.15;100.00;98559.81;4944634;29;20001;-90
2023/07/25 10:55:14;;;;;;;;;;;;;;;6.12;100.00;98554.69;4952094;28;19925;-94
2023/07/25 10:57:39;;;;;;;;;;;;;;;6.10;100.00;98552.13;4945440;28;19923;-87
2023/07/25 11:00:08;;;;;;;;;;;;;;;6.11;100.00;98553.84;4945462;29;20094;-89
2023/07/25 11:02:43;;;;;;;;;;;;;;;6.10;100.00;98562.63;4945091;29;20001;-88
2023/07/25 11:05:12;;;;;;;;;;;;;;;6.12;100.00;98559.94;4945194;29;20016;-85
2023/07/25 11:07:48;;;;;;;;;;;;;;;6.18;100.00;98559.69;4944383;28;19926;-86
2023/07/25 11:10:20;;;;;;;;;;;;;;;6.17;100.00;98568.47;4928479;29;19941;-87
2023/07/25 11:12:55;;;;;;;;;;;;;;;6.15;100.00;98567.69;4950932;28;19922;-84
2023/07/25 11:15:21;;;;;;;;;;;;;;;6.20;100.00;98564.88;4952135;29;19918;-87
2023/07/25 11:17:47;;;;;;;;;;;;;;;6.24;100.00;98569.94;4945033;29;19922;-87
2023/07/25 11:20:19;;;;;;;;;;;;;;;6.32;100.00;98573.06;4945415;28;20297;-89
2023/07/25 11:22:47;;;;;;;;;;;;;;;6.19;100.00;98579.81;4943191;28;20299;-89
2023/07/25 11:25:13;;;;;;;;;;;;;;;6.28;100.00;98582.00;4945321;28;20021;-89
2023/07/25 11:27:42;;;;;;;;;;;;;;;6.19;100.00;98582.44;4927262;29;20063;-88
2023/07/25 11:30:08;;;;;;;;;;;;;;;6.31;100.00;98584.50;4944687;28;20268;-88
2023/07/25 11:32:33;;;;;;;;;;;;;;;6.23;100.00;98594.50;4945015;28;19926;-88
2023/07/25 11:35:00;;;;;;;;;;;;;;;6.17;100.00;98594.78;4927639;29;20014;-87
2023/07/25 11:37:25;;;;;;;;;;;;;;;6.17;100.00;98597.41;4926065;29;19927;-87
2023/07/25 11:39:51;;;;;;;;;;;;;;;6.18;100.00;98596.50;4944595;28;20306;-88
2023/07/25 11:42:16;;;;;;;;;;;;;;;6.21;100.00;98601.63;4950556;29;19918;-89
2023/07/25 11:44:44;;;;;;;;;;;;;;;6.22;100.00;98608.56;4928146;29;19925;-90
2023/07/25 11:47:10;;;;;;;;;;;;;;;6.30;100.00;98611.75;4945126;28;19918;-87
2023/07/25 11:49:35;;;;;;;;;;;;;;;6.20;100.00;98612.22;4930030;29;19919;-88
2023/07/25 11:52:01;;;;;;;;;;;;;;;6.36;100.00;98610.59;4953885;29;19933;-92
2023/07/25 11:54:27;;;;;;;;;;;;;;;6.32;100.00;98614.31;4932039;29;20338;-88
2023/07/25 11:56:52;;;;;;;;;;;;;;;6.28;100.00;98626.72;4928022;28;19922;-88
2023/07/25 11:59:17;;;;;;;;;;;;;;;6.22;100.00;98619.09;4951006;29;20266;-87
2023/07/25 12:01:42;;;;;;;;;;;;;;;6.25;100.00;98628.66;4927196;29;19925;-89
2023/07/25 12:04:18;;;;;;;;;;;;;;;6.28;100.00;98621.47;4927845;29;19973;-87
2023/07/25 12:06:43;;;;;;;;;;;;;;;6.13;100.00;98633.53;4951669;29;19923;-87
2023/07/25 12:12:56;;;;;;;;;;;;;;;6.17;100.00;98635.13;4945757;28;20022;-87
2023/07/25 12:15:42;;;;;;;;;;;;;;;6.06;100.00;98633.84;4885561;29;19943;-86
2023/07/25 12:18:26;;;;;;;;;;;;;;;6.11;100.00;98642.38;4884988;29;20007;-85
2023/07/25 12:20:51;;;;;;;;;;;;;;;6.13;100.00;98645.81;4885429;29;20103;-86
2023/07/25 12:23:16;;;;;;;;;;;;;;;6.09;100.00;98649.50;4883751;29;20430;-88
2023/07/25 12:25:42;;;;;;;;;;;;;;;6.08;100.00;98642.50;4894290;29;19920;-86
2023/07/25 12:28:08;;;;;;;;;;;;;;;6.07;100.00;98644.28;4947566;29;19922;-85
2023/07/25 12:30:33;;;;;;;;;;;;;;;6.10;100.00;98653.84;4931223;29;19958;-86
2023/07/25 12:32:58;;;;;;;;;;;;;;;6.14;100.00;98652.78;4947621;29;20307;-87
2023/07/25 12:35:23;;;;;;;;;;;;;;;6.07;100.00;98652.19;4948080;29;19918;-84
2023/07/25 12:37:49;;;;;;;;;;;;;;;6.02;100.00;98648.91;4929878;28;20005;-85
2023/07/25 12:40:14;;;;;;;;;;;;;;;6.06;100.00;98654.88;4939644;29;20033;-89
2023/07/25 12:42:39;;;;;;;;;;;;;;;6.06;100.00;98662.78;4938400;29;19925;-88
2023/07/25 12:45:05;;;;;;;;;;;;;;;6.07;100.00;98664.50;4938298;29;19922;-84
2023/07/25 12:47:32;;;;;;;;;;;;;;;6.04;100.00;98669.88;4937585;29;19919;-86
2023/07/25 12:49:57;;;;;;;;;;;;;;;6.00;100.00;98671.78;4938107;29;19919;-88
2023/07/25 12:52:22;;;;;;;;;;;;;;;6.03;100.00;98668.16;4936827;29;20014;-88
2023/07/25 12:54:47;;;;;;;;;;;;;;;6.02;100.00;98669.09;4937938;29;19954;-85
2023/07/25 12:57:13;;;;;;;;;;;;;;;6.05;100.00;98671.56;4937989;29;20294;-86
2023/07/25 12:59:38;;;;;;;;;;;;;;;6.05;100.00;98675.06;4938080;29;20293;-85
2023/07/25 13:02:03;;;;;;;;;;;;;;;6.03;100.00;98676.94;4936785;29;20033;-85
2023/07/25 13:04:30;;;;;;;;;;;;;;;6.00;100.00;98679.69;4937321;29;19962;-86
2023/07/25 13:06:56;;;;;;;;;;;;;;;6.02;100.00;98677.84;4938164;29;19983;-86
2023/07/25 13:09:21;;;;;;;;;;;;;;;6.03;100.00;98678.69;4936840;29;20370;-87
2023/07/25 13:11:46;;;;;;;;;;;;;;;6.06;100.00;98681.19;4937890;29;20371;-88
2023/07/25 13:14:11;;;;;;;;;;;;;;;5.99;100.00;98676.19;4920493;29;20278;-86
2023/07/25 13:16:37;;;;;;;;;;;;;;;6.04;100.00;98683.03;4920858;29;20326;-86
2023/07/25 13:19:02;;;;;;;;;;;;;;;6.00;100.00;98685.78;4920557;29;19919;-90
2023/07/25 13:21:27;;;;;;;;;;;;;;;5.97;100.00;98696.44;4920671;29;19930;-86
2023/07/25 13:23:52;;;;;;;;;;;;;;;5.96;100.00;98693.81;4936440;29;20383;-92
2023/07/25 13:26:17;;;;;;;;;;;;;;;6.02;100.00;98705.91;4938074;29;19923;-92
2023/07/25 13:28:43;;;;;;;;;;;;;;;6.06;100.00;98704.84;4938125;29;19919;-85
2023/07/25 13:31:08;;;;;;;;;;;;;;;6.02;100.00;98711.19;4937460;29;19919;-85
2023/07/25 13:33:33;;;;;;;;;;;;;;;6.03;100.00;98721.63;4936671;29;19966;-86
2023/07/25 13:35:58;;;;;;;;;;;;;;;6.05;100.00;98721.53;4920065;29;19919;-86
2023/07/25 13:38:24;;;;;;;;;;;;;;;6.03;100.00;98728.66;4936304;28;20298;-86
2023/07/25 13:40:49;;;;;;;;;;;;;;;5.96;100.00;98733.28;4937152;29;19959;-86
2023/07/25 13:43:15;;;;;;;;;;;;;;;6.03;100.00;98736.53;4937227;29;19926;-84
2023/07/25 13:45:40;;;;;;;;;;;;;;;6.09;100.00;98738.91;4936842;29;20346;-85
2023/07/25 13:48:05;;;;;;;;;;;;;;;5.97;100.00;98737.66;4936975;29;19919;-88
2023/07/25 13:50:30;;;;;;;;;;;;;;;6.06;100.00;98749.56;4937063;29;19923;-88
2023/07/25 13:52:56;;;;;;;;;;;;;;;6.03;100.00;98754.94;4918784;29;20001;-89
2023/07/25 13:55:21;;;;;;;;;;;;;;;6.02;100.00;98750.63;4937007;29;20366;-88
2023/07/25 13:57:46;;;;;;;;;;;;;;;6.08;100.00;98755.59;4937365;29;20260;-89
2023/07/25 14:00:12;;;;;;;;;;;;;;;6.02;100.00;98763.78;4927354;29;20358;-87
2023/07/25 14:02:37;;;;;;;;;;;;;;;6.08;100.00;98763.50;4936967;29;19970;-91
2023/07/25 14:05:03;;;;;;;;;;;;;;;6.09;100.00;98775.72;4936672;29;19919;-88
2023/07/25 14:07:28;;;;;;;;;;;;;;;6.01;100.00;98770.78;4935745;29;20218;-89
2023/07/25 14:09:53;;;;;;;;;;;;;;;6.10;100.00;98773.03;4936693;29;19919;-94
2023/07/25 14:12:19;;;;;;;;;;;;;;;6.06;100.00;98776.69;4936646;29;20385;-85
2023/07/25 14:14:44;;;;;;;;;;;;;;;6.10;100.00;98783.56;4936582;29;19948;-86
2023/07/25 14:17:09;;;;;;;;;;;;;;;6.12;100.00;98786.13;4936575;29;19970;-85
2023/07/25 14:19:34;;;;;;;;;;;;;;;6.11;100.00;98787.91;4931517;29;19923;-86
2023/07/25 14:22:00;;;;;;;;;;;;;;;6.11;100.00;98789.66;4934450;29;20006;-87
2023/07/25 14:24:26;;;;;;;;;;;;;;;6.15;100.00;98791.28;4935093;29;19987;-87
2023/07/25 14:26:51;;;;;;;;;;;;;;;6.15;100.00;98796.53;4935700;29;20334;-86
2023/07/25 14:29:16;;;;;;;;;;;;;;;6.11;100.00;98801.06;4935854;29;19914;-89
2023/07/25 14:31:41;;;;;;;;;;;;;;;6.14;100.00;98805.34;4935761;29;19919;-86
2023/07/25 14:34:07;;;;;;;;;;;;;;;6.12;100.00;98812.44;4933120;29;19919;-87
2023/07/25 14:36:32;;;;;;;;;;;;;;;6.07;100.00;98810.00;4936210;29;19923;-94
2023/07/25 14:38:57;;;;;;;;;;;;;;;6.08;100.00;98806.44;4912586;29;19923;-86
2023/07/25 14:41:23;;;;;;;;;;;;;;;6.07;100.00;98815.25;4927994;29;19927;-89
2023/07/25 14:43:48;;;;;;;;;;;;;;;6.10;100.00;98812.50;4912828;29;19983;-88
2023/07/25 14:46:14;;;;;;;;;;;;;;;5.99;100.00;98820.81;4926313;29;20021;-88
2023/07/25 14:48:39;;;;;;;;;;;;;;;6.02;100.00;98813.72;4908449;29;19976;-86
2023/07/25 14:51:04;;;;;;;;;;;;;;;5.99;100.00;98822.59;4929542;29;19926;-89
2023/07/25 14:53:31;;;;;;;;;;;;;;;5.95;100.00;98823.56;4925231;29;19923;-89
2023/07/25 14:55:57;;;;;;;;;;;;;;;5.97;100.00;98824.44;4926200;29;19930;-88
2023/07/25 14:58:22;;;;;;;;;;;;;;;5.95;100.00;98832.34;4911295;29;20271;-88
2023/07/25 15:00:48;;;;;;;;;;;;;;;5.98;100.00;98828.75;4929055;29;19919;-86
2023/07/25 15:03:14;;;;;;;;;;;;;;;5.99;100.00;98844.47;4924413;29;19926;-89
2023/07/25 15:05:39;;;;;;;;;;;;;;;6.02;100.00;98837.41;4928487;29;20294;-89
2023/07/25 15:08:05;;;;;;;;;;;;;;;6.00;100.00;98838.31;4929383;29;19923;-87
2023/07/25 15:10:31;;;;;;;;;;;;;;;5.92;100.00;98842.09;4929542;29;19927;-89
2023/07/25 15:12:56;;;;;;;;;;;;;;;5.92;100.00;98842.97;4927527;29;19922;-89
2023/07/25 15:15:22;;;;;;;;;;;;;;;5.95;100.00;98842.88;4909215;29;19927;-90
2023/07/25 15:17:47;;;;;;;;;;;;;;;5.96;100.00;98841.97;4925670;29;20028;-86
2023/07/25 15:20:12;;;;;;;;;;;;;;;5.98;100.00;98847.16;4927768;29;19974;-88
2023/07/25 15:22:37;;;;;;;;;;;;;;;6.00;100.00;98856.72;4925629;29;19927;-86
2023/07/25 15:25:03;;;;;;;;;;;;;;;6.03;100.00;98861.00;4931853;29;19933;-89
2023/07/25 15:27:28;;;;;;;;;;;;;;;6.08;100.00;98858.19;4908540;29;20016;-86
2023/07/25 15:29:54;;;;;;;;;;;;;;;6.00;100.00;98856.72;4909112;29;19923;-84
2023/07/25 15:32:19;;;;;;;;;;;;;;;6.04;100.00;98862.72;4909845;29;19923;-88
2023/07/25 15:34:44;;;;;;;;;;;;;;;6.03;100.00;98868.03;4926412;29;19954;-86
2023/07/25 15:39:45;;;;;;;;;;;;;;;5.97;100.00;98867.34;4931100;23;19931;-87
2023/07/25 15:42:11;;;;;;;;;;;;;;;5.97;100.00;98864.72;4907273;29;19949;-88
2023/07/25 15:44:36;;;;;;;;;;;;;;;6.02;100.00;98863.69;4925749;29;20290;-88
2023/07/25 15:47:02;;;;;;;;;;;;;;;5.97;100.00;98866.50;4925447;29;19923;-89
2023/07/25 15:49:27;;;;;;;;;;;;;;;6.03;100.00;98861.00;4908615;29;19966;-86
2023/07/25 15:51:53;;;;;;;;;;;;;;;5.95;100.00;98869.16;4927211;29;19926;-86
2023/07/25 15:54:18;;;;;;;;;;;;;;;5.98;100.00;98861.19;4907719;29;19923;-90
2023/07/25 15:56:44;;;;;;;;;;;;;;;5.95;100.00;98876.16;4906061;29;19925;-89
2023/07/25 15:59:11;;;;;;;;;;;;;;;5.99;100.00;98875.19;4918427;29;20054;-88
2023/07/25 16:01:37;;;;;;;;;;;;;;;6.00;100.00;98883.00;4925495;29;19971;-87
2023/07/25 16:04:02;;;;;;;;;;;;;;;6.00;100.00;98883.00;4924932;29;19925;-88
2023/07/25 16:06:28;;;;;;;;;;;;;;;6.01;100.00;98886.50;4906426;29;19926;-87
2023/07/25 16:08:54;;;;;;;;;;;;;;;5.99;100.00;98890.97;4919068;29;19923;-88
2023/07/25 16:11:19;;;;;;;;;;;;;;;5.99;100.00;98889.19;4922186;29;20281;-86
2023/07/25 16:13:45;;;;;;;;;;;;;;;6.04;100.00;98893.41;4921343;29;19927;-89
2023/07/25 16:16:10;;;;;;;;;;;;;;;5.94;100.00;98891.09;4908411;29;19923;-88
2023/07/25 16:18:35;;;;;;;;;;;;;;;6.02;100.00;98897.88;4915884;29;20394;-90
2023/07/25 16:21:01;;;;;;;;;;;;;;;5.98;100.00;98900.63;4926518;29;19923;-89
2023/07/25 16:23:26;;;;;;;;;;;;;;;5.98;100.00;98900.63;4925497;29;19983;-91
2023/07/25 16:25:54;;;;;;;;;;;;;;;5.98;100.00;98898.00;4909705;29;20367;-88
2023/07/25 16:28:19;;;;;;;;;;;;;;;6.00;100.00;98903.22;4924504;29;19945;-86
2023/07/25 16:30:45;;;;;;;;;;;;;;;5.93;100.00;98907.78;4908253;29;19973;-88
2023/07/25 16:33:10;;;;;;;;;;;;;;;5.95;100.00;98905.09;4915686;29;19921;-84
2023/07/25 16:35:35;;;;;;;;;;;;;;;5.92;100.00;98906.09;4906378;29;19966;-86
2023/07/25 16:38:01;;;;;;;;;;;;;;;5.99;100.00;98918.09;4906948;29;19927;-87
2023/07/25 16:40:26;;;;;;;;;;;;;;;5.96;100.00;98907.69;4905526;29;20286;-85
2023/07/25 16:42:52;;;;;;;;;;;;;;;5.97;100.00;98908.59;4904154;29;19931;-87
2023/07/25 16:45:17;;;;;;;;;;;;;;;5.95;100.00;98916.50;4924769;29;19919;-87
2023/07/25 16:47:42;;;;;;;;;;;;;;;5.87;100.00;98920.31;4925214;29;19930;-87
2023/07/25 16:50:07;;;;;;;;;;;;;;;5.92;100.00;98919.22;4908240;29;20383;-86
2023/07/25 16:52:36;;;;;;;;;;;;;;;6.02;100.00;98921.56;4923233;29;20035;-87
2023/07/25 16:55:02;;;;;;;;;;;;;;;5.94;100.00;98933.16;4906457;29;19927;-88
2023/07/25 16:57:27;;;;;;;;;;;;;;;5.92;100.00;98935.00;4922548;29;19927;-87
2023/07/25 16:59:53;;;;;;;;;;;;;;;5.94;100.00;98933.16;4907148;29;20021;-88
2023/07/25 17:02:18;;;;;;;;;;;;;;;6.00;100.00;98938.25;4907142;29;19919;-87
2023/07/25 17:10:40;;;;;;;;;;;;;;;5.98;100.00;98937.44;5162031;23;19982;-86
2023/07/25 17:13:05;;;;;;;;;;;;;;;5.99;100.00;98941.78;4948960;28;20369;-87
2023/07/25 17:15:31;;;;;;;;;;;;;;;6.02;100.00;98938.19;4947985;28;20572;-87
2023/07/25 17:17:56;;;;;;;;;;;;;;;5.97;100.00;98937.50;4948552;28;20392;-87
2023/07/25 17:20:24;;;;;;;;;;;;;;;6.05;100.00;98942.44;4964187;28;20028;-87
2023/07/25 17:22:50;;;;;;;;;;;;;;;5.95;100.00;98947.16;4963385;28;19922;-88
2023/07/25 17:28:29;;;;;;;;;;;;;;;5.95;100.00;98950.69;4925823;23;19937;-88
2023/07/25 17:30:55;;;;;;;;;;;;;;;5.94;100.00;98948.09;4947478;29;19919;-89
2023/07/25 17:33:20;;;;;;;;;;;;;;;5.95;100.00;98952.44;4930768;29;19926;-88
2023/07/25 17:35:46;;;;;;;;;;;;;;;5.93;100.00;98954.25;4929840;29;19926;-88
2023/07/25 17:38:14;;;;;;;;;;;;;;;5.89;100.00;98957.91;4948429;29;19923;-88
2023/07/25 17:40:43;;;;;;;;;;;;;;;5.89;100.00;98956.16;4931203;29;19923;-86
2023/07/25 17:43:09;;;;;;;;;;;;;;;5.90;100.00;98959.63;4946993;29;19923;-88
2023/07/25 17:48:14;;;;;;;;;;;;;;;5.83;100.00;98967.75;5096113;23;19933;-89
2023/07/25 17:50:39;;;;;;;;;;;;;;;5.82;100.00;98971.31;4938043;29;19918;-89
2023/07/25 17:53:07;;;;;;;;;;;;;;;5.91;100.00;98975.34;4953522;29;19978;-89
2023/07/25 17:55:32;;;;;;;;;;;;;;;5.81;100.00;98972.22;4954196;29;19919;-89
2023/07/25 17:57:58;;;;;;;;;;;;;;;5.89;100.00;98974.56;4938439;29;19925;-88
2023/07/25 18:00:51;;;;;;;;;;;;;;;5.90;100.00;98981.53;4956074;28;20009;-91
2023/07/25 18:06:22;;;;;;;;;;;;;;;5.88;100.00;98985.97;4944154;29;19983;-89
2023/07/25 18:11:22;;;;;;;;;;;;;;;5.88;100.00;98985.13;5024562;23;19982;-86
2023/07/25 18:13:47;;;;;;;;;;;;;;;5.90;100.00;98986.78;4948766;29;19918;-89
2023/07/25 18:16:13;;;;;;;;;;;;;;;5.90;100.00;98992.03;4947633;29;19923;-86
2023/07/25 18:18:38;;;;;;;;;;;;;;;5.97;100.00;98998.00;4947127;29;20321;-89
2023/07/25 18:21:03;;;;;;;;;;;;;;;5.94;100.00;99003.31;4929398;28;19922;-86
2023/07/25 18:23:28;;;;;;;;;;;;;;;5.95;100.00;99000.63;4943332;29;20358;-89
2023/07/25 18:25:58;;;;;;;;;;;;;;;5.86;100.00;99000.97;4923865;29;20387;-86
2023/07/25 18:31:33;;;;;;;;;;;;;;;5.93;100.00;99004.22;4897876;23;19919;-84
2023/07/25 18:33:59;;;;;;;;;;;;;;;5.91;100.00;99006.06;4944104;29;20405;-90
2023/07/25 18:36:24;;;;;;;;;;;;;;;5.87;100.00;99014.97;4935158;29;20366;-86
2023/07/25 18:38:49;;;;;;;;;;;;;;;5.92;100.00;99015.66;4934061;29;20255;-87
2023/07/25 18:41:14;;;;;;;;;;;;;;;5.89;100.00;99016.63;4956086;23;19931;-86
2023/07/25 18:43:40;;;;;;;;;;;;;;;5.85;100.00;99017.66;4944419;29;20256;-89
2023/07/25 18:46:05;;;;;;;;;;;;;;;5.94;100.00;99019.94;4945814;29;19919;-85
2023/07/25 18:48:30;;;;;;;;;;;;;;;5.89;100.00;99031.53;4935519;29;20413;-88
2023/07/25 18:53:30;;;;;;;;;;;;;;;5.87;100.00;99031.63;5346781;23;19934;-86
2023/07/25 18:55:56;;;;;;;;;;;;;;;5.87;100.00;99044.75;4935589;29;19969;-85
2023/07/25 18:58:22;;;;;;;;;;;;;;;6.01;100.00;99041.66;4944493;29;20286;-85
2023/07/25 19:00:49;;;;;;;;;;;;;;;5.99;100.00;99040.84;4945501;29;19933;-85
2023/07/25 19:03:14;;;;;;;;;;;;;;;5.95;100.00;99052.34;4934833;29;19926;-84
2023/07/25 19:05:39;;;;;;;;;;;;;;;5.93;100.00;99056.81;4935583;29;19922;-85
2023/07/25 19:08:05;;;;;;;;;;;;;;;5.90;100.00;99064.81;4945632;28;19922;-87
2023/07/25 19:10:30;;;;;;;;;;;;;;;5.87;100.00;99060.53;4935988;28;19996;-86
2023/07/25 19:12:55;;;;;;;;;;;;;;;5.89;100.00;99070.97;4935664;29;20282;-90
2023/07/25 19:15:30;;;;;;;;;;;;;;;5.93;100.00;99064.72;4946474;29;19923;-88
2023/07/25 19:17:55;;;;;;;;;;;;;;;5.93;100.00;99068.19;4946469;28;19930;-85
2023/07/25 19:20:25;;;;;;;;;;;;;;;5.86;100.00;99074.59;4944829;29;19922;-86
2023/07/25 19:22:50;;;;;;;;;;;;;;;5.86;100.00;99077.22;4944807;29;19919;-84
2023/07/25 19:25:18;;;;;;;;;;;;;;;5.92;100.00;99078.75;4945190;29;19926;-86
2023/07/25 19:27:46;;;;;;;;;;;;;;;5.85;100.00;99086.00;4944406;29;20366;-88
2023/07/25 19:30:11;;;;;;;;;;;;;;;5.91;100.00;99088.44;4928633;29;19926;-87
2023/07/25 19:32:36;;;;;;;;;;;;;;;5.88;100.00;99093.78;4947200;28;20362;-85
2023/07/25 19:35:02;;;;;;;;;;;;;;;5.81;100.00;99097.56;4934896;29;20363;-85
2023/07/25 19:37:27;;;;;;;;;;;;;;;5.86;100.00;99106.13;4932602;29;20405;-86
2023/07/25 19:39:53;;;;;;;;;;;;;;;5.86;100.00;99110.56;4945813;29;19922;-85
2023/07/25 19:42:18;;;;;;;;;;;;;;;5.88;100.00;99119.22;4932495;29;19919;-87
2023/07/25 19:44:43;;;;;;;;;;;;;;;5.83;100.00;99125.50;4934511;29;19923;-90
2023/07/25 19:47:08;;;;;;;;;;;;;;;5.77;100.00;99130.09;4934401;29;19970;-89
2023/07/25 19:49:34;;;;;;;;;;;;;;;5.76;100.00;99134.53;4935705;29;19989;-89
2023/07/25 19:51:59;;;;;;;;;;;;;;;5.78;100.00;99123.94;4934449;29;19950;-88
2023/07/25 19:54:24;;;;;;;;;;;;;;;5.82;100.00;99130.81;4942504;29;19929;-88
2023/07/25 19:56:50;;;;;;;;;;;;;;;5.83;100.00;99138.66;4927078;29;19919;-87
2023/07/25 19:59:15;;;;;;;;;;;;;;;5.73;100.00;99145.13;4934559;29;19982;-87
2023/07/25 20:01:41;;;;;;;;;;;;;;;5.82;100.00;99147.47;4934426;29;19923;-87
2023/07/25 20:04:06;;;;;;;;;;;;;;;5.72;100.00;99151.28;4934683;29;19931;-86
2023/07/25 20:06:33;;;;;;;;;;;;;;;5.74;100.00;99153.88;4933763;29;19926;-86
2023/07/25 20:08:59;;;;;;;;;;;;;;;5.85;100.00;99154.38;4943361;29;19936;-86
2023/07/25 20:11:24;;;;;;;;;;;;;;;5.85;100.00;99156.16;4928536;29;20520;-86
2023/07/25 20:13:49;;;;;;;;;;;;;;;5.83;100.00;99151.78;4944062;29;19919;-85
2023/07/25 20:16:15;;;;;;;;;;;;;;;5.81;100.00;99165.91;4944257;29;19966;-87
2023/07/25 20:18:40;;;;;;;;;;;;;;;5.84;100.00;99165.81;4944283;29;19930;-86
2023/07/25 20:21:13;;;;;;;;;;;;;;;5.76;100.00;99170.44;4945621;29;19956;-92
2023/07/25 20:23:39;;;;;;;;;;;;;;;5.77;100.00;99175.66;4925704;29;19929;-88
2023/07/25 20:26:04;;;;;;;;;;;;;;;5.78;100.00;99171.28;4944308;29;20381;-88
2023/07/25 20:28:29;;;;;;;;;;;;;;;5.73;100.00;99175.84;4933335;29;19922;-89
2023/07/25 20:30:55;;;;;;;;;;;;;;;5.73;100.00;99183.72;4942878;29;20387;-87
2023/07/25 20:33:20;;;;;;;;;;;;;;;5.72;100.00;99188.09;4942897;28;19918;-87
2023/07/25 20:35:46;;;;;;;;;;;;;;;5.69;100.00;99197.84;4943520;29;19922;-88
2023/07/25 20:38:12;;;;;;;;;;;;;;;5.78;100.00;99205.44;4942838;29;19918;-86
2023/07/25 20:40:38;;;;;;;;;;;;;;;5.69;100.00;99201.34;4945322;29;19931;-86
2023/07/25 20:43:03;;;;;;;;;;;;;;;5.69;100.00;99200.47;4946864;29;19926;-84
2023/07/25 20:45:30;;;;;;;;;;;;;;;5.69;100.00;99200.47;4946971;28;20229;-87
2023/07/25 20:47:55;;;;;;;;;;;;;;;5.69;100.00;99206.59;4950365;28;19926;-87
2023/07/25 20:50:20;;;;;;;;;;;;;;;5.76;100.00;99209.88;4948351;29;19978;-85
2023/07/25 20:52:45;;;;;;;;;;;;;;;5.73;100.00;99210.00;4947190;29;19962;-87
2023/07/25 20:55:11;;;;;;;;;;;;;;;5.73;100.00;99210.00;4950197;29;19926;-85
2023/07/25 20:57:36;;;;;;;;;;;;;;;5.68;100.00;99215.41;4948985;29;20091;-88
2023/07/25 21:00:01;;;;;;;;;;;;;;;5.70;100.00;99210.09;4951950;29;19978;-90
2023/07/25 21:02:27;;;;;;;;;;;;;;;5.66;100.00;99219.81;4930335;29;19926;-86
2023/07/25 21:04:54;;;;;;;;;;;;;;;5.67;100.00;99215.44;4938109;29;20375;-86
2023/07/25 21:07:19;;;;;;;;;;;;;;;5.70;100.00;99218.00;4947695;29;19932;-84